sensor_id;sensor_type;location;lat;lon;timestamp;temperature;humidity
26186;DHT22;20067;48.764;9.176;2023-09-08T00:02:27;19.90;91.30
26186;DHT22;20067;48.764;9.176;2023-09-08T00:04:53;20.00;91.30
26186;DHT22;20067;48.764;9.176;2023-09-08T00:07:19;19.70;91.30
26186;DHT22;20067;48.764;9.176;2023-09-08T00:09:45;19.30;91.30
26186;DHT22;20067;48.764;9.176;2023-09-08T00:12:10;19.30;91.30
26186;DHT22;20067;48.764;9.176;2023-09-08T00:14:36;19.40;91.30
26186;DHT22;20067;48.764;9.176;2023-09-08T00:17:01;19.10;91.30
26186;DHT22;20067;48.764;9.176;2023-09-08T00:19:27;19.30;91.30
26186;DHT22;20067;48.764;9.176;2023-09-08T00:21:53;19.50;91.30
26186;DHT22;20067;48.764;9.176;2023-09-08T00:24:19;19.70;91.30
26186;DHT22;20067;48.764;9.176;2023-09-08T00:26:46;19.80;91.30
26186;DHT22;20067;48.764;9.176;2023-09-08T00:29:12;19.50;91.30
26186;DHT22;20067;48.764;9.176;2023-09-08T00:31:37;19.50;91.30
26186;DHT22;20067;48.764;9.176;2023-09-08T00:34:03;19.30;91.30
26186;DHT22;20067;48.764;9.176;2023-09-08T00:36:28;19.10;91.30
26186;DHT22;20067;48.764;9.176;2023-09-08T00:38:54;19.30;91.30
26186;DHT22;20067;48.764;9.176;2023-09-08T00:41:20;19.10;91.30
26186;DHT22;20067;48.764;9.176;2023-09-08T00:43:45;19.20;91.30
26186;DHT22;20067;48.764;9.176;2023-09-08T00:46:11;19.30;91.30
26186;DHT22;20067;48.764;9.176;2023-09-08T00:48:38;19.20;91.30
26186;DHT22;20067;48.764;9.176;2023-09-08T00:51:03;19.00;91.30
26186;DHT22;20067;48.764;9.176;2023-09-08T00:53:31;18.90;91.30
26186;DHT22;20067;48.764;9.176;2023-09-08T00:55:59;19.10;91.30
26186;DHT22;20067;48.764;9.176;2023-09-08T00:58:24;19.10;91.30
26186;DHT22;20067;48.764;9.176;2023-09-08T01:00:50;19.00;91.30
26186;DHT22;20067;48.764;9.176;2023-09-08T01:03:16;19.10;91.30
26186;DHT22;20067;48.764;9.176;2023-09-08T01:05:42;19.10;91.30
26186;DHT22;20067;48.764;9.176;2023-09-08T01:08:09;18.70;91.30
26186;DHT22;20067;48.764;9.176;2023-09-08T01:10:35;18.30;91.30
26186;DHT22;20067;48.764;9.176;2023-09-08T01:13:02;18.60;91.30
26186;DHT22;20067;48.764;9.176;2023-09-08T01:15:28;18.60;91.30
26186;DHT22;20067;48.764;9.176;2023-09-08T01:17:54;18.70;91.30
26186;DHT22;20067;48.764;9.176;2023-09-08T01:20:23;18.50;91.30
26186;DHT22;20067;48.764;9.176;2023-09-08T01:23:17;18.40;91.30
26186;DHT22;20067;48.764;9.176;2023-09-08T01:28:17;19.10;91.30
26186;DHT22;20067;48.764;9.176;2023-09-08T01:30:44;19.00;91.30
26186;DHT22;20067;48.764;9.176;2023-09-08T01:33:11;18.70;91.30
26186;DHT22;20067;48.764;9.176;2023-09-08T01:35:36;18.90;91.30
26186;DHT22;20067;48.764;9.176;2023-09-08T01:38:02;19.00;91.30
26186;DHT22;20067;48.764;9.176;2023-09-08T01:40:28;19.30;91.30
26186;DHT22;20067;48.764;9.176;2023-09-08T01:42:53;19.00;91.30
26186;DHT22;20067;48.764;9.176;2023-09-08T01:45:19;19.20;91.30
26186;DHT22;20067;48.764;9.176;2023-09-08T01:47:45;19.20;91.30
26186;DHT22;20067;48.764;9.176;2023-09-08T01:50:10;18.80;91.30
26186;DHT22;20067;48.764;9.176;2023-09-08T01:52:36;18.70;91.30
26186;DHT22;20067;48.764;9.176;2023-09-08T01:55:01;19.10;91.30
26186;DHT22;20067;48.764;9.176;2023-09-08T01:57:27;18.90;91.30
26186;DHT22;20067;48.764;9.176;2023-09-08T01:59:53;18.90;91.30
26186;DHT22;20067;48.764;9.176;2023-09-08T02:02:18;18.70;91.30
26186;DHT22;20067;48.764;9.176;2023-09-08T02:04:44;18.30;91.30
26186;DHT22;20067;48.764;9.176;2023-09-08T02:07:10;18.40;91.30
26186;DHT22;20067;48.764;9.176;2023-09-08T02:09:38;18.50;91.30
26186;DHT22;20067;48.764;9.176;2023-09-08T02:12:04;18.30;91.30
26186;DHT22;20067;48.764;9.176;2023-09-08T02:14:30;18.60;91.30
26186;DHT22;20067;48.764;9.176;2023-09-08T02:16:56;18.60;91.30
26186;DHT22;20067;48.764;9.176;2023-09-08T02:19:22;18.70;91.30
26186;DHT22;20067;48.764;9.176;2023-09-08T02:21:48;18.80;91.30
26186;DHT22;20067;48.764;9.176;2023-09-08T02:24:14;18.70;91.30
26186;DHT22;20067;48.764;9.176;2023-09-08T02:26:40;18.30;91.30
26186;DHT22;20067;48.764;9.176;2023-09-08T02:29:05;17.90;91.30
26186;DHT22;20067;48.764;9.176;2023-09-08T02:31:31;18.20;91.30
26186;DHT22;20067;48.764;9.176;2023-09-08T02:33:57;18.20;91.30
26186;DHT22;20067;48.764;9.176;2023-09-08T02:36:22;18.00;91.30
26186;DHT22;20067;48.764;9.176;2023-09-08T02:38:55;18.00;91.30
26186;DHT22;20067;48.764;9.176;2023-09-08T02:41:21;17.90;91.30
26186;DHT22;20067;48.764;9.176;2023-09-08T02:43:47;18.20;91.30
26186;DHT22;20067;48.764;9.176;2023-09-08T02:46:13;18.20;91.30
26186;DHT22;20067;48.764;9.176;2023-09-08T02:48:39;18.20;91.30
26186;DHT22;20067;48.764;9.176;2023-09-08T02:51:05;17.90;91.30
26186;DHT22;20067;48.764;9.176;2023-09-08T02:53:30;17.70;91.30
26186;DHT22;20067;48.764;9.176;2023-09-08T02:55:57;17.50;91.30
26186;DHT22;20067;48.764;9.176;2023-09-08T02:58:22;17.70;91.30
26186;DHT22;20067;48.764;9.176;2023-09-08T03:00:48;17.60;91.30
26186;DHT22;20067;48.764;9.176;2023-09-08T03:03:14;17.60;91.30
26186;DHT22;20067;48.764;9.176;2023-09-08T03:05:39;17.60;91.30
26186;DHT22;20067;48.764;9.176;2023-09-08T03:08:05;17.70;91.30
26186;DHT22;20067;48.764;9.176;2023-09-08T03:10:31;17.80;91.30
26186;DHT22;20067;48.764;9.176;2023-09-08T03:13:00;17.70;91.30
26186;DHT22;20067;48.764;9.176;2023-09-08T03:15:25;17.90;91.30
26186;DHT22;20067;48.764;9.176;2023-09-08T03:17:54;17.70;91.30
26186;DHT22;20067;48.764;9.176;2023-09-08T03:20:19;17.90;91.30
26186;DHT22;20067;48.764;9.176;2023-09-08T03:22:45;18.10;91.30
26186;DHT22;20067;48.764;9.176;2023-09-08T03:25:11;18.10;91.30
26186;DHT22;20067;48.764;9.176;2023-09-08T03:27:38;18.10;91.30
26186;DHT22;20067;48.764;9.176;2023-09-08T03:30:04;18.00;91.30
26186;DHT22;20067;48.764;9.176;2023-09-08T03:32:30;18.30;91.30
26186;DHT22;20067;48.764;9.176;2023-09-08T03:34:56;18.60;91.30
26186;DHT22;20067;48.764;9.176;2023-09-08T03:37:21;18.20;91.30
26186;DHT22;20067;48.764;9.176;2023-09-08T03:39:47;17.70;91.30
26186;DHT22;20067;48.764;9.176;2023-09-08T03:42:13;17.90;91.30
26186;DHT22;20067;48.764;9.176;2023-09-08T03:44:39;18.20;91.30
26186;DHT22;20067;48.764;9.176;2023-09-08T03:47:04;18.00;91.30
26186;DHT22;20067;48.764;9.176;2023-09-08T03:49:30;17.90;91.30
26186;DHT22;20067;48.764;9.176;2023-09-08T03:51:56;17.80;91.30
26186;DHT22;20067;48.764;9.176;2023-09-08T03:54:23;17.70;91.30
26186;DHT22;20067;48.764;9.176;2023-09-08T03:56:49;18.20;91.30
26186;DHT22;20067;48.764;9.176;2023-09-08T03:59:14;18.30;91.30
26186;DHT22;20067;48.764;9.176;2023-09-08T04:01:40;17.80;91.30
26186;DHT22;20067;48.764;9.176;2023-09-08T04:04:06;18.00;91.30
26186;DHT22;20067;48.764;9.176;2023-09-08T04:06:31;18.00;91.30
26186;DHT22;20067;48.764;9.176;2023-09-08T04:08:57;17.80;91.30
26186;DHT22;20067;48.764;9.176;2023-09-08T04:11:22;17.60;91.30
26186;DHT22;20067;48.764;9.176;2023-09-08T04:13:48;17.60;91.30
26186;DHT22;20067;48.764;9.176;2023-09-08T04:16:14;17.90;91.30
26186;DHT22;20067;48.764;9.176;2023-09-08T04:18:40;17.80;91.30
26186;DHT22;20067;48.764;9.176;2023-09-08T04:21:06;17.50;91.30
26186;DHT22;20067;48.764;9.176;2023-09-08T04:23:33;17.60;91.30
26186;DHT22;20067;48.764;9.176;2023-09-08T04:25:58;17.80;91.30
26186;DHT22;20067;48.764;9.176;2023-09-08T04:28:24;17.60;91.30
26186;DHT22;20067;48.764;9.176;2023-09-08T04:30:50;17.80;91.30
26186;DHT22;20067;48.764;9.176;2023-09-08T04:33:15;17.70;91.30
26186;DHT22;20067;48.764;9.176;2023-09-08T04:35:41;17.80;91.30
26186;DHT22;20067;48.764;9.176;2023-09-08T04:38:07;18.00;91.30
26186;DHT22;20067;48.764;9.176;2023-09-08T04:40:35;18.10;91.30
26186;DHT22;20067;48.764;9.176;2023-09-08T04:43:24;18.00;91.30
26186;DHT22;20067;48.764;9.176;2023-09-08T04:45:50;18.20;91.30
26186;DHT22;20067;48.764;9.176;2023-09-08T04:48:16;18.10;91.30
26186;DHT22;20067;48.764;9.176;2023-09-08T04:50:41;18.20;91.30
26186;DHT22;20067;48.764;9.176;2023-09-08T04:53:07;18.30;91.30
26186;DHT22;20067;48.764;9.176;2023-09-08T04:55:32;18.30;91.30
26186;DHT22;20067;48.764;9.176;2023-09-08T04:57:58;18.10;91.30
26186;DHT22;20067;48.764;9.176;2023-09-08T05:00:23;18.00;91.30
26186;DHT22;20067;48.764;9.176;2023-09-08T05:02:49;17.70;91.30
26186;DHT22;20067;48.764;9.176;2023-09-08T05:05:15;17.70;91.30
26186;DHT22;20067;48.764;9.176;2023-09-08T05:07:41;17.80;91.30
26186;DHT22;20067;48.764;9.176;2023-09-08T05:10:06;17.60;91.30
26186;DHT22;20067;48.764;9.176;2023-09-08T05:12:33;17.80;91.30
26186;DHT22;20067;48.764;9.176;2023-09-08T05:14:59;17.80;91.30
26186;DHT22;20067;48.764;9.176;2023-09-08T05:17:31;18.00;91.30
26186;DHT22;20067;48.764;9.176;2023-09-08T05:19:57;17.70;91.30
26186;DHT22;20067;48.764;9.176;2023-09-08T05:22:23;17.40;91.30
26186;DHT22;20067;48.764;9.176;2023-09-08T05:24:48;17.40;91.30
26186;DHT22;20067;48.764;9.176;2023-09-08T05:27:14;17.60;91.30
26186;DHT22;20067;48.764;9.176;2023-09-08T05:29:39;17.70;91.30
26186;DHT22;20067;48.764;9.176;2023-09-08T05:32:05;17.70;91.30
26186;DHT22;20067;48.764;9.176;2023-09-08T05:34:31;17.90;91.30
26186;DHT22;20067;48.764;9.176;2023-09-08T05:36:56;18.20;91.30
26186;DHT22;20067;48.764;9.176;2023-09-08T05:39:22;18.10;91.30
26186;DHT22;20067;48.764;9.176;2023-09-08T05:41:47;18.30;91.30
26186;DHT22;20067;48.764;9.176;2023-09-08T05:44:13;18.30;91.30
26186;DHT22;20067;48.764;9.176;2023-09-08T05:46:38;18.20;91.30
26186;DHT22;20067;48.764;9.176;2023-09-08T05:49:07;18.30;91.30
26186;DHT22;20067;48.764;9.176;2023-09-08T05:51:33;18.00;91.30
26186;DHT22;20067;48.764;9.176;2023-09-08T05:53:59;18.00;91.30
26186;DHT22;20067;48.764;9.176;2023-09-08T05:56:29;18.30;91.30
26186;DHT22;20067;48.764;9.176;2023-09-08T05:58:55;18.40;91.30
26186;DHT22;20067;48.764;9.176;2023-09-08T06:01:21;18.60;91.30
26186;DHT22;20067;48.764;9.176;2023-09-08T06:03:46;18.40;91.30
26186;DHT22;20067;48.764;9.176;2023-09-08T06:06:12;18.30;91.30
26186;DHT22;20067;48.764;9.176;2023-09-08T06:08:38;17.90;91.30
26186;DHT22;20067;48.764;9.176;2023-09-08T06:11:04;18.00;91.30
26186;DHT22;20067;48.764;9.176;2023-09-08T06:13:29;18.20;91.30
26186;DHT22;20067;48.764;9.176;2023-09-08T06:15:55;17.90;91.30
26186;DHT22;20067;48.764;9.176;2023-09-08T06:18:21;17.80;91.30
26186;DHT22;20067;48.764;9.176;2023-09-08T06:20:47;17.70;91.30
26186;DHT22;20067;48.764;9.176;2023-09-08T06:23:13;18.20;91.30
26186;DHT22;20067;48.764;9.176;2023-09-08T06:25:39;18.60;91.30
26186;DHT22;20067;48.764;9.176;2023-09-08T06:28:05;18.70;91.30
26186;DHT22;20067;48.764;9.176;2023-09-08T06:30:31;18.70;91.30
26186;DHT22;20067;48.764;9.176;2023-09-08T06:32:57;18.60;91.30
26186;DHT22;20067;48.764;9.176;2023-09-08T06:35:23;18.50;91.30
26186;DHT22;20067;48.764;9.176;2023-09-08T06:37:48;18.40;91.30
26186;DHT22;20067;48.764;9.176;2023-09-08T06:40:20;18.60;91.30
26186;DHT22;20067;48.764;9.176;2023-09-08T06:42:45;18.70;91.30
26186;DHT22;20067;48.764;9.176;2023-09-08T06:45:11;18.90;91.30
26186;DHT22;20067;48.764;9.176;2023-09-08T06:47:37;19.00;91.30
26186;DHT22;20067;48.764;9.176;2023-09-08T06:50:02;19.00;91.30
26186;DHT22;20067;48.764;9.176;2023-09-08T06:52:28;19.10;91.30
26186;DHT22;20067;48.764;9.176;2023-09-08T06:54:54;19.10;91.30
26186;DHT22;20067;48.764;9.176;2023-09-08T06:57:20;19.20;91.30
26186;DHT22;20067;48.764;9.176;2023-09-08T06:59:46;19.30;91.30
26186;DHT22;20067;48.764;9.176;2023-09-08T07:02:11;19.30;91.30
26186;DHT22;20067;48.764;9.176;2023-09-08T07:04:37;19.30;91.30
26186;DHT22;20067;48.764;9.176;2023-09-08T07:07:03;19.10;91.30
26186;DHT22;20067;48.764;9.176;2023-09-08T07:09:35;19.40;91.30
26186;DHT22;20067;48.764;9.176;2023-09-08T07:12:05;19.60;91.30
26186;DHT22;20067;48.764;9.176;2023-09-08T07:14:31;19.70;91.30
26186;DHT22;20067;48.764;9.176;2023-09-08T07:16:57;19.80;91.30
26186;DHT22;20067;48.764;9.176;2023-09-08T07:19:23;19.80;91.30
26186;DHT22;20067;48.764;9.176;2023-09-08T07:21:49;20.00;91.30
26186;DHT22;20067;48.764;9.176;2023-09-08T07:24:14;20.00;91.30
26186;DHT22;20067;48.764;9.176;2023-09-08T07:26:40;20.00;91.30
26186;DHT22;20067;48.764;9.176;2023-09-08T07:29:05;20.10;91.30
26186;DHT22;20067;48.764;9.176;2023-09-08T07:31:31;20.00;91.30
26186;DHT22;20067;48.764;9.176;2023-09-08T07:33:57;20.20;91.30
26186;DHT22;20067;48.764;9.176;2023-09-08T07:36:22;20.50;91.30
26186;DHT22;20067;48.764;9.176;2023-09-08T07:38:48;20.60;91.30
26186;DHT22;20067;48.764;9.176;2023-09-08T07:41:14;20.60;91.30
26186;DHT22;20067;48.764;9.176;2023-09-08T07:43:40;20.60;91.30
26186;DHT22;20067;48.764;9.176;2023-09-08T07:46:06;21.00;91.10
26186;DHT22;20067;48.764;9.176;2023-09-08T07:48:32;20.90;90.80
26186;DHT22;20067;48.764;9.176;2023-09-08T07:50:58;21.50;90.30
26186;DHT22;20067;48.764;9.176;2023-09-08T07:53:26;21.50;89.50
26186;DHT22;20067;48.764;9.176;2023-09-08T07:55:51;22.10;88.70
26186;DHT22;20067;48.764;9.176;2023-09-08T07:58:17;22.30;86.40
26186;DHT22;20067;48.764;9.176;2023-09-08T08:00:44;21.90;87.40
26186;DHT22;20067;48.764;9.176;2023-09-08T08:03:10;21.80;88.10
26186;DHT22;20067;48.764;9.176;2023-09-08T08:05:36;22.50;88.70
26186;DHT22;20067;48.764;9.176;2023-09-08T08:08:01;23.00;87.10
26186;DHT22;20067;48.764;9.176;2023-09-08T08:10:27;22.80;85.60
26186;DHT22;20067;48.764;9.176;2023-09-08T08:12:53;22.70;86.30
26186;DHT22;20067;48.764;9.176;2023-09-08T08:15:20;22.50;86.90
26186;DHT22;20067;48.764;9.176;2023-09-08T08:17:48;22.70;86.70
26186;DHT22;20067;48.764;9.176;2023-09-08T08:20:14;23.20;87.20
26186;DHT22;20067;48.764;9.176;2023-09-08T08:22:44;24.10;83.30
26186;DHT22;20067;48.764;9.176;2023-09-08T08:25:10;23.90;83.20
26186;DHT22;20067;48.764;9.176;2023-09-08T08:27:37;23.60;84.20
26186;DHT22;20067;48.764;9.176;2023-09-08T08:30:03;23.50;84.30
26186;DHT22;20067;48.764;9.176;2023-09-08T08:32:29;23.50;85.50
26186;DHT22;20067;48.764;9.176;2023-09-08T08:34:55;23.50;84.70
26186;DHT22;20067;48.764;9.176;2023-09-08T08:37:22;23.40;85.30
26186;DHT22;20067;48.764;9.176;2023-09-08T08:39:47;23.30;85.40
26186;DHT22;20067;48.764;9.176;2023-09-08T08:42:13;23.30;85.60
26186;DHT22;20067;48.764;9.176;2023-09-08T08:44:40;23.60;85.80
26186;DHT22;20067;48.764;9.176;2023-09-08T08:47:10;23.60;85.00
26186;DHT22;20067;48.764;9.176;2023-09-08T08:49:37;24.10;84.00
26186;DHT22;20067;48.764;9.176;2023-09-08T08:52:05;24.40;83.30
26186;DHT22;20067;48.764;9.176;2023-09-08T08:54:36;24.50;82.90
26186;DHT22;20067;48.764;9.176;2023-09-08T08:57:03;24.50;82.80
26186;DHT22;20067;48.764;9.176;2023-09-08T08:59:32;24.60;82.70
26186;DHT22;20067;48.764;9.176;2023-09-08T09:01:59;24.70;83.00
26186;DHT22;20067;48.764;9.176;2023-09-08T09:04:26;24.80;82.70
26186;DHT22;20067;48.764;9.176;2023-09-08T09:06:57;25.00;83.80
26186;DHT22;20067;48.764;9.176;2023-09-08T09:09:23;25.90;79.60
26186;DHT22;20067;48.764;9.176;2023-09-08T09:11:50;26.40;79.20
26186;DHT22;20067;48.764;9.176;2023-09-08T09:14:16;26.10;79.20
26186;DHT22;20067;48.764;9.176;2023-09-08T09:16:43;26.70;79.40
26186;DHT22;20067;48.764;9.176;2023-09-08T09:19:17;26.90;77.50
26186;DHT22;20067;48.764;9.176;2023-09-08T09:21:45;27.20;75.80
26186;DHT22;20067;48.764;9.176;2023-09-08T09:24:17;26.50;77.60
26186;DHT22;20067;48.764;9.176;2023-09-08T09:26:42;26.30;78.70
26186;DHT22;20067;48.764;9.176;2023-09-08T09:29:15;26.50;78.10
26186;DHT22;20067;48.764;9.176;2023-09-08T09:31:54;26.20;79.10
26186;DHT22;20067;48.764;9.176;2023-09-08T09:34:21;26.30;79.40
26186;DHT22;20067;48.764;9.176;2023-09-08T09:36:48;26.50;79.90
26186;DHT22;20067;48.764;9.176;2023-09-08T09:39:23;26.70;77.70
26186;DHT22;20067;48.764;9.176;2023-09-08T09:41:56;26.30;78.90
26186;DHT22;20067;48.764;9.176;2023-09-08T09:44:24;26.30;79.40
26186;DHT22;20067;48.764;9.176;2023-09-08T09:46:53;26.40;78.60
26186;DHT22;20067;48.764;9.176;2023-09-08T09:49:19;26.30;79.30
26186;DHT22;20067;48.764;9.176;2023-09-08T09:51:47;26.40;78.60
26186;DHT22;20067;48.764;9.176;2023-09-08T09:54:14;26.50;79.00
26186;DHT22;20067;48.764;9.176;2023-09-08T09:56:40;26.40;78.60
26186;DHT22;20067;48.764;9.176;2023-09-08T09:59:11;26.40;78.40
26186;DHT22;20067;48.764;9.176;2023-09-08T10:01:42;26.30;78.60
26186;DHT22;20067;48.764;9.176;2023-09-08T10:04:08;26.20;78.90
26186;DHT22;20067;48.764;9.176;2023-09-08T10:06:39;26.40;79.30
26186;DHT22;20067;48.764;9.176;2023-09-08T10:09:06;27.30;78.10
26186;DHT22;20067;48.764;9.176;2023-09-08T10:11:44;27.50;76.10
26186;DHT22;20067;48.764;9.176;2023-09-08T10:14:11;28.00;76.30
26186;DHT22;20067;48.764;9.176;2023-09-08T10:16:39;28.30;73.40
26186;DHT22;20067;48.764;9.176;2023-09-08T10:19:09;27.90;74.40
26186;DHT22;20067;48.764;9.176;2023-09-08T10:21:42;27.70;74.60
26186;DHT22;20067;48.764;9.176;2023-09-08T10:24:24;27.80;74.50
26186;DHT22;20067;48.764;9.176;2023-09-08T10:27:01;28.20;74.10
26186;DHT22;20067;48.764;9.176;2023-09-08T10:29:30;28.30;73.60
26186;DHT22;20067;48.764;9.176;2023-09-08T10:31:57;28.60;72.70
26186;DHT22;20067;48.764;9.176;2023-09-08T10:34:24;29.00;71.80
26186;DHT22;20067;48.764;9.176;2023-09-08T10:36:51;29.70;71.80
26186;DHT22;20067;48.764;9.176;2023-09-08T10:39:33;30.60;69.00
26186;DHT22;20067;48.764;9.176;2023-09-08T10:45:02;31.60;65.70
26186;DHT22;20067;48.764;9.176;2023-09-08T10:47:55;32.70;63.10
26186;DHT22;20067;48.764;9.176;2023-09-08T10:50:32;33.90;60.50
26186;DHT22;20067;48.764;9.176;2023-09-08T10:53:18;33.30;62.20
26186;DHT22;20067;48.764;9.176;2023-09-08T10:55:48;34.00;61.30
26186;DHT22;20067;48.764;9.176;2023-09-08T10:58:35;33.20;60.80
26186;DHT22;20067;48.764;9.176;2023-09-08T11:01:04;33.70;61.30
26186;DHT22;20067;48.764;9.176;2023-09-08T11:06:05;34.10;59.50
26186;DHT22;20067;48.764;9.176;2023-09-08T11:08:33;34.20;58.40
26186;DHT22;20067;48.764;9.176;2023-09-08T11:11:01;34.40;58.30
26186;DHT22;20067;48.764;9.176;2023-09-08T11:13:27;34.90;57.30
26186;DHT22;20067;48.764;9.176;2023-09-08T11:15:56;34.80;57.80
26186;DHT22;20067;48.764;9.176;2023-09-08T11:18:28;34.30;57.80
26186;DHT22;20067;48.764;9.176;2023-09-08T11:20:54;33.90;58.80
26186;DHT22;20067;48.764;9.176;2023-09-08T11:23:20;35.70;56.40
26186;DHT22;20067;48.764;9.176;2023-09-08T11:25:46;37.80;54.10
26186;DHT22;20067;48.764;9.176;2023-09-08T11:28:12;37.80;53.00
26186;DHT22;20067;48.764;9.176;2023-09-08T11:30:41;38.80;52.30
26186;DHT22;20067;48.764;9.176;2023-09-08T11:33:18;39.40;50.40
26186;DHT22;20067;48.764;9.176;2023-09-08T11:35:47;39.00;52.20
26186;DHT22;20067;48.764;9.176;2023-09-08T11:38:13;40.70;48.90
26186;DHT22;20067;48.764;9.176;2023-09-08T11:40:39;40.40;49.00
26186;DHT22;20067;48.764;9.176;2023-09-08T11:43:08;39.10;50.50
26186;DHT22;20067;48.764;9.176;2023-09-08T11:45:35;38.40;50.80
26186;DHT22;20067;48.764;9.176;2023-09-08T11:48:01;38.40;51.20
26186;DHT22;20067;48.764;9.176;2023-09-08T11:50:27;38.10;51.50
26186;DHT22;20067;48.764;9.176;2023-09-08T11:52:53;37.20;52.30
26186;DHT22;20067;48.764;9.176;2023-09-08T11:55:21;37.50;51.90
26186;DHT22;20067;48.764;9.176;2023-09-08T11:57:52;38.00;52.00
26186;DHT22;20067;48.764;9.176;2023-09-08T12:00:28;39.20;49.50
26186;DHT22;20067;48.764;9.176;2023-09-08T12:02:55;37.80;52.50
26186;DHT22;20067;48.764;9.176;2023-09-08T12:05:27;39.30;50.20
26186;DHT22;20067;48.764;9.176;2023-09-08T12:07:57;41.50;47.30
26186;DHT22;20067;48.764;9.176;2023-09-08T12:10:24;42.30;46.70
26186;DHT22;20067;48.764;9.176;2023-09-08T12:12:54;40.70;47.00
26186;DHT22;20067;48.764;9.176;2023-09-08T12:15:34;39.90;48.40
26186;DHT22;20067;48.764;9.176;2023-09-08T12:18:02;39.30;49.00
26186;DHT22;20067;48.764;9.176;2023-09-08T12:20:29;37.30;51.50
26186;DHT22;20067;48.764;9.176;2023-09-08T12:25:23;37.90;51.30
26186;DHT22;20067;48.764;9.176;2023-09-08T12:27:50;38.70;50.30
26186;DHT22;20067;48.764;9.176;2023-09-08T12:30:21;38.20;50.50
26186;DHT22;20067;48.764;9.176;2023-09-08T12:32:50;38.60;50.70
26186;DHT22;20067;48.764;9.176;2023-09-08T12:35:21;39.60;48.40
26186;DHT22;20067;48.764;9.176;2023-09-08T12:38:00;38.50;50.10
26186;DHT22;20067;48.764;9.176;2023-09-08T12:40:32;37.40;51.10
26186;DHT22;20067;48.764;9.176;2023-09-08T12:42:58;37.60;51.20
26186;DHT22;20067;48.764;9.176;2023-09-08T12:45:26;37.00;51.60
26186;DHT22;20067;48.764;9.176;2023-09-08T12:47:52;36.90;54.30
26186;DHT22;20067;48.764;9.176;2023-09-08T12:50:20;38.60;49.60
26186;DHT22;20067;48.764;9.176;2023-09-08T12:52:46;38.80;49.10
26186;DHT22;20067;48.764;9.176;2023-09-08T12:55:11;37.50;50.80
26186;DHT22;20067;48.764;9.176;2023-09-08T12:57:38;38.30;49.60
26186;DHT22;20067;48.764;9.176;2023-09-08T13:00:07;38.60;49.20
26186;DHT22;20067;48.764;9.176;2023-09-08T13:02:33;39.80;48.40
26186;DHT22;20067;48.764;9.176;2023-09-08T13:04:59;39.70;48.00
26186;DHT22;20067;48.764;9.176;2023-09-08T13:07:26;39.60;48.10
26186;DHT22;20067;48.764;9.176;2023-09-08T13:09:52;39.50;47.60
26186;DHT22;20067;48.764;9.176;2023-09-08T13:12:17;38.10;49.80
26186;DHT22;20067;48.764;9.176;2023-09-08T13:14:43;38.30;49.70
26186;DHT22;20067;48.764;9.176;2023-09-08T13:17:10;40.00;48.20
26186;DHT22;20067;48.764;9.176;2023-09-08T13:19:36;41.10;45.10
26186;DHT22;20067;48.764;9.176;2023-09-08T13:22:04;39.30;47.20
26186;DHT22;20067;48.764;9.176;2023-09-08T13:24:30;39.80;46.60
26186;DHT22;20067;48.764;9.176;2023-09-08T13:26:56;41.00;46.70
26186;DHT22;20067;48.764;9.176;2023-09-08T13:29:21;42.70;43.80
26186;DHT22;20067;48.764;9.176;2023-09-08T13:31:47;42.90;42.80
26186;DHT22;20067;48.764;9.176;2023-09-08T13:34:13;42.10;44.60
26186;DHT22;20067;48.764;9.176;2023-09-08T13:36:39;41.10;44.70
26186;DHT22;20067;48.764;9.176;2023-09-08T13:39:05;40.80;45.30
26186;DHT22;20067;48.764;9.176;2023-09-08T13:41:50;40.90;44.90
26186;DHT22;20067;48.764;9.176;2023-09-08T13:44:17;41.40;44.90
26186;DHT22;20067;48.764;9.176;2023-09-08T13:46:46;40.90;46.90
26186;DHT22;20067;48.764;9.176;2023-09-08T13:49:12;41.00;46.00
26186;DHT22;20067;48.764;9.176;2023-09-08T13:51:37;42.20;44.30
26186;DHT22;20067;48.764;9.176;2023-09-08T13:54:03;40.10;45.90
26186;DHT22;20067;48.764;9.176;2023-09-08T13:56:29;39.90;46.40
26186;DHT22;20067;48.764;9.176;2023-09-08T13:58:55;39.70;46.00
26186;DHT22;20067;48.764;9.176;2023-09-08T14:01:22;40.60;46.60
26186;DHT22;20067;48.764;9.176;2023-09-08T14:03:49;41.30;45.70
26186;DHT22;20067;48.764;9.176;2023-09-08T14:06:18;40.90;44.70
26186;DHT22;20067;48.764;9.176;2023-09-08T14:08:44;40.50;45.90
26186;DHT22;20067;48.764;9.176;2023-09-08T14:11:10;40.00;45.20
26186;DHT22;20067;48.764;9.176;2023-09-08T14:13:37;41.00;44.60
26186;DHT22;20067;48.764;9.176;2023-09-08T14:16:04;41.10;43.90
26186;DHT22;20067;48.764;9.176;2023-09-08T14:18:30;41.20;43.90
26186;DHT22;20067;48.764;9.176;2023-09-08T14:20:56;41.70;43.60
26186;DHT22;20067;48.764;9.176;2023-09-08T14:23:21;42.10;42.50
26186;DHT22;20067;48.764;9.176;2023-09-08T14:25:47;40.10;44.30
26186;DHT22;20067;48.764;9.176;2023-09-08T14:28:13;38.30;46.40
26186;DHT22;20067;48.764;9.176;2023-09-08T14:30:38;39.10;45.90
26186;DHT22;20067;48.764;9.176;2023-09-08T14:33:06;38.30;46.60
26186;DHT22;20067;48.764;9.176;2023-09-08T14:35:32;38.30;47.40
26186;DHT22;20067;48.764;9.176;2023-09-08T14:37:58;38.10;48.10
26186;DHT22;20067;48.764;9.176;2023-09-08T14:40:24;39.40;46.50
26186;DHT22;20067;48.764;9.176;2023-09-08T14:42:50;38.90;47.60
26186;DHT22;20067;48.764;9.176;2023-09-08T14:45:15;39.60;46.10
26186;DHT22;20067;48.764;9.176;2023-09-08T14:47:41;39.50;45.70
26186;DHT22;20067;48.764;9.176;2023-09-08T14:50:07;39.60;46.90
26186;DHT22;20067;48.764;9.176;2023-09-08T14:52:32;39.40;46.20
26186;DHT22;20067;48.764;9.176;2023-09-08T14:54:58;40.90;45.50
26186;DHT22;20067;48.764;9.176;2023-09-08T14:57:24;41.60;43.70
26186;DHT22;20067;48.764;9.176;2023-09-08T14:59:49;40.90;43.30
26186;DHT22;20067;48.764;9.176;2023-09-08T15:02:19;40.80;43.50
26186;DHT22;20067;48.764;9.176;2023-09-08T15:04:45;39.00;46.20
26186;DHT22;20067;48.764;9.176;2023-09-08T15:07:10;38.50;46.80
26186;DHT22;20067;48.764;9.176;2023-09-08T15:09:36;39.30;46.00
26186;DHT22;20067;48.764;9.176;2023-09-08T15:12:02;40.60;45.00
26186;DHT22;20067;48.764;9.176;2023-09-08T15:14:28;40.90;44.70
26186;DHT22;20067;48.764;9.176;2023-09-08T15:16:53;40.30;44.30
26186;DHT22;20067;48.764;9.176;2023-09-08T15:19:19;39.70;44.60
26186;DHT22;20067;48.764;9.176;2023-09-08T15:21:44;39.50;45.00
26186;DHT22;20067;48.764;9.176;2023-09-08T15:24:10;38.70;46.10
26186;DHT22;20067;48.764;9.176;2023-09-08T15:26:36;37.60;47.20
26186;DHT22;20067;48.764;9.176;2023-09-08T15:29:01;35.20;50.40
26186;DHT22;20067;48.764;9.176;2023-09-08T15:31:27;34.60;54.10
26186;DHT22;20067;48.764;9.176;2023-09-08T15:33:53;33.90;54.80
26186;DHT22;20067;48.764;9.176;2023-09-08T15:36:18;33.30;53.40
26186;DHT22;20067;48.764;9.176;2023-09-08T15:38:44;33.00;55.50
26186;DHT22;20067;48.764;9.176;2023-09-08T15:43:38;33.00;56.50